Time;durP1;ratioP1;P1;durP2;ratioP2;P2;SDS_P1;SDS_P2;PMS_P1;PMS_P2;Temp;Humidity;BMP_temperature;BMP_pressure;BME280_temperature;BME280_humidity;BME280_pressure;Samples;Min_cycle;Max_cycle;Signal;HPM_P1;HPM_P2
2021/03/05 00:01:24;;;;;;;;;;;5.10;98.00;;;;;;5054396;28;20353;-73
2021/03/05 00:03:49;;;;;;;;;;;5.10;98.00;;;;;;5057728;28;20049;-72
2021/03/05 00:06:15;;;;;;;;;;;5.10;98.00;;;;;;5055823;28;19984;-72
2021/03/05 00:08:40;;;;;;;;;;;5.20;98.00;;;;;;5057109;28;20197;-72
2021/03/05 00:11:06;;;;;;;;;;;5.20;98.00;;;;;;5053236;28;20292;-73
2021/03/05 00:13:32;;;;;;;;;;;5.10;98.00;;;;;;5053737;28;19909;-73
2021/03/05 00:15:57;;;;;;;;;;;5.20;98.00;;;;;;5055538;28;19921;-72
2021/03/05 00:18:23;;;;;;;;;;;5.20;98.00;;;;;;5056658;28;19935;-72
2021/03/05 00:20:50;;;;;;;;;;;5.20;98.00;;;;;;5056770;28;19966;-73
2021/03/05 00:23:16;;;;;;;;;;;5.20;98.00;;;;;;5057444;28;19908;-73
2021/03/05 00:25:41;;;;;;;;;;;5.10;98.00;;;;;;5043715;28;19920;-73
2021/03/05 00:28:07;;;;;;;;;;;5.20;98.00;;;;;;5056701;28;19908;-73
2021/03/05 00:30:35;;;;;;;;;;;5.20;98.00;;;;;;5046954;28;19942;-72
2021/03/05 00:33:02;;;;;;;;;;;5.20;98.00;;;;;;5037575;28;19909;-72
2021/03/05 00:35:27;;;;;;;;;;;5.20;98.00;;;;;;5055438;28;19966;-72
2021/03/05 00:37:53;;;;;;;;;;;5.20;98.00;;;;;;5055909;28;20539;-73
2021/03/05 00:40:19;;;;;;;;;;;5.20;98.00;;;;;;5038189;28;19916;-72
2021/03/05 00:42:45;;;;;;;;;;;5.20;98.00;;;;;;5053297;28;19947;-72
2021/03/05 00:45:12;;;;;;;;;;;5.30;98.00;;;;;;5038615;28;20210;-72
2021/03/05 00:47:37;;;;;;;;;;;5.30;98.00;;;;;;5055083;28;20264;-73
2021/03/05 00:50:03;;;;;;;;;;;5.30;98.00;;;;;;5054030;28;19999;-72
2021/03/05 00:52:29;;;;;;;;;;;5.20;98.00;;;;;;5056493;28;19912;-72
2021/03/05 00:54:54;;;;;;;;;;;5.20;98.00;;;;;;5056094;28;19909;-72
2021/03/05 00:57:20;;;;;;;;;;;5.20;98.00;;;;;;5039336;28;19930;-71
2021/03/05 00:59:45;;;;;;;;;;;5.20;98.00;;;;;;5054078;28;19944;-72
2021/03/05 01:02:11;;;;;;;;;;;5.20;98.00;;;;;;5058144;28;20009;-73
2021/03/05 01:04:37;;;;;;;;;;;5.20;98.00;;;;;;5037868;28;19908;-72
2021/03/05 01:07:02;;;;;;;;;;;5.20;98.00;;;;;;5049574;28;20309;-72
2021/03/05 01:09:28;;;;;;;;;;;5.20;98.00;;;;;;5042244;28;19923;-73
2021/03/05 01:11:53;;;;;;;;;;;5.20;98.00;;;;;;5050542;28;19912;-73
2021/03/05 01:14:19;;;;;;;;;;;5.20;98.00;;;;;;5046689;28;19935;-73
2021/03/05 01:16:44;;;;;;;;;;;5.20;98.00;;;;;;5044426;28;19913;-73
2021/03/05 01:19:11;;;;;;;;;;;5.20;98.00;;;;;;5055467;28;19991;-73
2021/03/05 01:21:36;;;;;;;;;;;5.10;98.00;;;;;;5055088;28;19951;-72
2021/03/05 01:24:02;;;;;;;;;;;5.10;98.00;;;;;;5038739;28;19948;-73
2021/03/05 01:26:28;;;;;;;;;;;5.20;98.00;;;;;;5053977;28;19956;-73
2021/03/05 01:28:53;;;;;;;;;;;5.10;98.00;;;;;;5055540;28;20260;-72
2021/03/05 01:31:19;;;;;;;;;;;5.20;98.00;;;;;;5053598;28;19960;-73
2021/03/05 01:33:45;;;;;;;;;;;5.20;98.00;;;;;;5054501;28;19908;-73
2021/03/05 01:36:11;;;;;;;;;;;5.20;98.00;;;;;;5052060;28;19916;-72
2021/03/05 01:38:37;;;;;;;;;;;5.20;98.00;;;;;;5044263;28;19909;-72
2021/03/05 01:41:02;;;;;;;;;;;5.20;98.00;;;;;;5045443;28;19909;-73
2021/03/05 01:43:30;;;;;;;;;;;5.20;98.00;;;;;;5056193;28;19909;-72
2021/03/05 01:45:55;;;;;;;;;;;5.20;98.00;;;;;;5052742;28;20267;-73
2021/03/05 01:48:21;;;;;;;;;;;5.20;98.00;;;;;;5055261;28;20009;-72
2021/03/05 01:50:50;;;;;;;;;;;5.20;98.00;;;;;;5051214;28;20178;-73
2021/03/05 01:53:16;;;;;;;;;;;5.20;98.00;;;;;;5054036;28;20868;-72
2021/03/05 01:55:42;;;;;;;;;;;5.20;98.00;;;;;;5048650;28;19905;-73
2021/03/05 01:58:07;;;;;;;;;;;5.20;98.00;;;;;;5054150;28;19909;-72
2021/03/05 02:00:33;;;;;;;;;;;5.20;98.00;;;;;;5047073;28;19967;-72
2021/03/05 02:02:58;;;;;;;;;;;5.20;98.00;;;;;;5051213;28;19904;-73
2021/03/05 02:05:24;;;;;;;;;;;5.20;98.00;;;;;;5053683;28;19995;-72
2021/03/05 02:07:49;;;;;;;;;;;5.20;98.00;;;;;;5050569;28;19947;-72
2021/03/05 02:10:15;;;;;;;;;;;5.20;98.00;;;;;;5046700;28;19912;-73
2021/03/05 02:12:41;;;;;;;;;;;5.20;98.00;;;;;;5054453;28;19924;-73
2021/03/05 02:15:07;;;;;;;;;;;5.20;98.00;;;;;;5055293;28;19954;-72
2021/03/05 02:17:35;;;;;;;;;;;4.90;98.00;;;;;;5050939;28;20557;-73
2021/03/05 02:20:24;;;;;;;;;;;4.30;98.00;;;;;;5053829;28;19913;-72
2021/03/05 02:23:09;;;;;;;;;;;4.10;98.00;;;;;;5055390;28;19905;-72
2021/03/05 02:25:34;;;;;;;;;;;3.80;98.00;;;;;;5053482;28;19920;-72
2021/03/05 02:28:18;;;;;;;;;;;3.50;98.00;;;;;;5054328;28;20221;-72
2021/03/05 02:30:53;;;;;;;;;;;3.40;98.00;;;;;;5048782;28;19955;-73
2021/03/05 02:33:27;;;;;;;;;;;3.20;98.00;;;;;;5037983;28;19905;-73
2021/03/05 02:35:55;;;;;;;;;;;3.10;98.00;;;;;;5040041;28;20269;-72
2021/03/05 02:38:23;;;;;;;;;;;3.00;98.00;;;;;;5064682;28;19913;-72
2021/03/05 02:40:50;;;;;;;;;;;2.90;98.00;;;;;;5050816;28;19932;-71
2021/03/05 02:43:17;;;;;;;;;;;2.80;98.00;;;;;;5055324;28;19909;-72
2021/03/05 02:45:43;;;;;;;;;;;2.80;98.00;;;;;;5053141;28;19955;-73
2021/03/05 02:48:12;;;;;;;;;;;2.80;98.00;;;;;;5048034;28;19948;-71
2021/03/05 02:50:40;;;;;;;;;;;2.90;98.00;;;;;;5053001;28;19912;-72
2021/03/05 02:53:07;;;;;;;;;;;2.90;98.00;;;;;;5054326;28;19913;-72
2021/03/05 02:55:33;;;;;;;;;;;2.80;98.00;;;;;;5054569;28;20009;-72
2021/03/05 02:58:00;;;;;;;;;;;2.80;98.00;;;;;;5059270;28;19913;-72
2021/03/05 03:00:26;;;;;;;;;;;2.80;98.00;;;;;;5054517;28;19919;-72
2021/03/05 03:02:52;;;;;;;;;;;2.70;98.00;;;;;;5032440;28;19909;-72
2021/03/05 03:05:18;;;;;;;;;;;2.70;98.00;;;;;;5049860;28;19913;-72
2021/03/05 03:07:44;;;;;;;;;;;2.70;98.00;;;;;;5064441;28;19909;-72
2021/03/05 03:10:10;;;;;;;;;;;2.60;98.00;;;;;;5055042;28;19912;-72
2021/03/05 03:12:37;;;;;;;;;;;2.60;98.00;;;;;;5054630;28;19908;-72
2021/03/05 03:15:10;;;;;;;;;;;2.70;98.00;;;;;;5054362;28;19978;-72
2021/03/05 03:17:36;;;;;;;;;;;2.70;98.00;;;;;;5053592;28;19954;-73
2021/03/05 03:20:02;;;;;;;;;;;2.70;98.00;;;;;;5037004;28;20139;-72
2021/03/05 03:22:28;;;;;;;;;;;2.70;98.00;;;;;;5051384;28;19916;-73
2021/03/05 03:24:54;;;;;;;;;;;2.70;98.00;;;;;;5057359;28;20210;-73
2021/03/05 03:27:19;;;;;;;;;;;2.60;98.00;;;;;;5038974;28;20285;-73
2021/03/05 03:29:45;;;;;;;;;;;2.60;98.00;;;;;;5053253;28;19917;-72
2021/03/05 03:32:11;;;;;;;;;;;2.70;98.00;;;;;;5056040;28;19920;-72
2021/03/05 03:34:40;;;;;;;;;;;2.70;98.00;;;;;;5057989;28;19909;-73
2021/03/05 03:37:06;;;;;;;;;;;2.70;98.00;;;;;;5041683;28;19916;-73
2021/03/05 03:39:32;;;;;;;;;;;2.70;98.00;;;;;;5046267;28;19909;-72
2021/03/05 03:41:58;;;;;;;;;;;2.60;98.00;;;;;;5057645;28;20257;-73
2021/03/05 03:44:24;;;;;;;;;;;2.50;98.00;;;;;;5056103;28;19916;-73
2021/03/05 03:46:50;;;;;;;;;;;2.50;98.00;;;;;;5054162;28;20290;-72
2021/03/05 03:49:18;;;;;;;;;;;2.50;98.00;;;;;;5056836;28;19962;-71
2021/03/05 03:51:47;;;;;;;;;;;2.50;98.00;;;;;;5055752;28;19921;-72
2021/03/05 03:54:14;;;;;;;;;;;2.40;98.00;;;;;;5057383;28;20001;-71
2021/03/05 03:56:41;;;;;;;;;;;2.40;98.00;;;;;;5057096;28;19990;-73
2021/03/05 03:59:06;;;;;;;;;;;2.40;98.00;;;;;;5039634;28;19908;-73
2021/03/05 04:01:33;;;;;;;;;;;2.30;98.00;;;;;;5056281;28;19914;-73
2021/03/05 04:04:00;;;;;;;;;;;2.30;98.00;;;;;;5057684;28;19935;-73
2021/03/05 04:06:26;;;;;;;;;;;2.30;98.00;;;;;;5056805;28;19909;-73
2021/03/05 04:08:52;;;;;;;;;;;2.20;98.00;;;;;;5056072;28;20347;-73
2021/03/05 04:11:19;;;;;;;;;;;2.20;98.00;;;;;;5057067;28;20272;-72
2021/03/05 04:13:45;;;;;;;;;;;2.10;98.00;;;;;;5057593;28;19915;-73
2021/03/05 04:16:11;;;;;;;;;;;2.10;98.00;;;;;;5055375;28;19916;-72
2021/03/05 04:18:37;;;;;;;;;;;2.10;98.00;;;;;;5063347;28;19908;-71
2021/03/05 04:21:09;;;;;;;;;;;2.10;98.00;;;;;;5050815;28;19947;-72
2021/03/05 04:23:35;;;;;;;;;;;2.00;98.00;;;;;;5039770;28;19916;-73
2021/03/05 04:26:00;;;;;;;;;;;2.00;98.00;;;;;;5052873;28;19913;-71
2021/03/05 04:28:26;;;;;;;;;;;2.00;98.00;;;;;;5056638;28;19916;-72
2021/03/05 04:30:52;;;;;;;;;;;1.90;98.00;;;;;;5055796;28;19928;-72
2021/03/05 04:33:17;;;;;;;;;;;2.00;98.00;;;;;;5056807;28;19909;-72
2021/03/05 04:35:43;;;;;;;;;;;2.00;98.00;;;;;;5053918;28;19913;-72
2021/03/05 04:38:08;;;;;;;;;;;1.90;98.00;;;;;;5056487;28;20230;-72
2021/03/05 04:40:34;;;;;;;;;;;1.90;98.00;;;;;;5056512;28;19909;-72
2021/03/05 04:42:59;;;;;;;;;;;1.90;98.00;;;;;;5056736;28;19909;-72
2021/03/05 04:45:28;;;;;;;;;;;1.80;98.00;;;;;;5038387;28;19904;-72
2021/03/05 04:47:53;;;;;;;;;;;1.70;98.00;;;;;;5058491;28;19926;-73
2021/03/05 04:50:19;;;;;;;;;;;1.70;98.00;;;;;;5058797;28;20011;-71
2021/03/05 04:52:47;;;;;;;;;;;1.70;98.00;;;;;;5056484;28;19991;-72
2021/03/05 04:55:13;;;;;;;;;;;1.70;98.00;;;;;;5056209;28;19909;-72
2021/03/05 04:57:38;;;;;;;;;;;1.70;98.00;;;;;;5050558;28;19920;-72
2021/03/05 05:00:04;;;;;;;;;;;1.60;98.00;;;;;;5055661;28;20323;-72
2021/03/05 05:02:30;;;;;;;;;;;1.70;98.00;;;;;;5048205;28;19915;-73
2021/03/05 05:04:55;;;;;;;;;;;1.70;98.00;;;;;;5029547;28;19936;-72
2021/03/05 05:07:21;;;;;;;;;;;1.60;98.00;;;;;;5049770;28;20272;-72
2021/03/05 05:09:47;;;;;;;;;;;1.70;98.00;;;;;;5044720;28;19962;-73
2021/03/05 05:12:12;;;;;;;;;;;1.70;98.00;;;;;;5048498;28;19913;-72
2021/03/05 05:14:37;;;;;;;;;;;1.70;98.00;;;;;;5038932;28;19909;-72
2021/03/05 05:17:03;;;;;;;;;;;1.70;98.00;;;;;;5049100;28;19982;-72
2021/03/05 05:19:29;;;;;;;;;;;1.70;98.00;;;;;;5055426;28;20296;-72
2021/03/05 05:21:54;;;;;;;;;;;1.70;98.00;;;;;;5059604;28;19916;-72
2021/03/05 05:24:20;;;;;;;;;;;1.70;98.00;;;;;;5039719;28;19951;-73
2021/03/05 05:26:45;;;;;;;;;;;1.70;98.00;;;;;;5054752;28;19916;-72
2021/03/05 05:29:11;;;;;;;;;;;1.70;98.00;;;;;;5054690;28;20323;-72
2021/03/05 05:31:36;;;;;;;;;;;1.60;98.00;;;;;;5047438;28;19919;-72
2021/03/05 05:34:02;;;;;;;;;;;1.60;98.00;;;;;;5055496;28;19911;-72
2021/03/05 05:36:27;;;;;;;;;;;1.60;98.00;;;;;;5050980;28;19912;-73
2021/03/05 05:38:53;;;;;;;;;;;1.50;98.00;;;;;;5053204;28;19905;-73
2021/03/05 05:41:26;;;;;;;;;;;1.40;98.00;;;;;;5046474;28;19909;-74
2021/03/05 05:43:52;;;;;;;;;;;1.40;98.00;;;;;;5055276;28;20301;-75
2021/03/05 05:46:19;;;;;;;;;;;1.30;98.00;;;;;;5052708;28;19911;-74
2021/03/05 05:48:45;;;;;;;;;;;1.30;98.00;;;;;;5053489;28;19923;-74
2021/03/05 05:51:17;;;;;;;;;;;1.20;98.00;;;;;;5052431;28;19939;-73
2021/03/05 05:53:45;;;;;;;;;;;1.10;98.00;;;;;;5054384;28;19905;-74
2021/03/05 05:56:12;;;;;;;;;;;1.10;98.00;;;;;;5052402;28;19974;-73
2021/03/05 05:58:37;;;;;;;;;;;1.10;98.00;;;;;;5054907;28;19916;-72
2021/03/05 06:01:05;;;;;;;;;;;1.10;98.00;;;;;;5057714;28;19922;-72
2021/03/05 06:03:32;;;;;;;;;;;1.10;98.00;;;;;;5053869;28;19923;-72
2021/03/05 06:05:59;;;;;;;;;;;1.10;98.00;;;;;;5069231;28;19913;-73
2021/03/05 06:08:25;;;;;;;;;;;1.10;98.00;;;;;;5054009;28;19909;-73
2021/03/05 06:10:53;;;;;;;;;;;1.10;98.00;;;;;;5053224;28;19954;-71
2021/03/05 06:13:19;;;;;;;;;;;1.10;98.00;;;;;;5053951;28;20010;-72
2021/03/05 06:15:44;;;;;;;;;;;1.10;98.00;;;;;;5050580;28;20281;-72
2021/03/05 06:18:28;;;;;;;;;;;1.10;98.00;;;;;;5039294;28;19916;-72
2021/03/05 06:20:53;;;;;;;;;;;1.10;98.00;;;;;;5040317;28;19909;-71
2021/03/05 06:23:19;;;;;;;;;;;1.10;98.00;;;;;;5054735;28;20007;-71
2021/03/05 06:25:44;;;;;;;;;;;1.10;98.00;;;;;;5055527;28;20212;-72
2021/03/05 06:28:18;;;;;;;;;;;1.10;98.00;;;;;;5052680;28;19963;-72
2021/03/05 06:30:44;;;;;;;;;;;1.10;98.00;;;;;;5034626;28;20128;-71
2021/03/05 06:33:30;;;;;;;;;;;1.10;98.00;;;;;;5037852;28;19905;-72
2021/03/05 06:36:13;;;;;;;;;;;1.20;98.00;;;;;;5055151;28;19908;-72
2021/03/05 06:38:40;;;;;;;;;;;1.10;98.00;;;;;;5053837;28;19912;-72
2021/03/05 06:41:18;;;;;;;;;;;1.10;98.00;;;;;;5055326;28;19912;-71
2021/03/05 06:43:45;;;;;;;;;;;1.10;98.00;;;;;;5056584;28;19923;-71
2021/03/05 06:46:29;;;;;;;;;;;1.10;98.00;;;;;;5053974;28;19909;-71
2021/03/05 06:48:54;;;;;;;;;;;1.00;98.00;;;;;;5052211;28;19908;-71
2021/03/05 06:51:22;;;;;;;;;;;1.00;98.00;;;;;;5055353;28;20264;-71
2021/03/05 06:53:48;;;;;;;;;;;1.00;98.00;;;;;;5054981;28;19915;-72
2021/03/05 06:56:26;;;;;;;;;;;1.00;98.00;;;;;;5055299;28;19999;-72
2021/03/05 06:58:59;;;;;;;;;;;1.00;98.00;;;;;;5056656;28;20256;-72
2021/03/05 07:01:25;;;;;;;;;;;1.00;98.00;;;;;;5058199;28;19909;-73
2021/03/05 07:04:10;;;;;;;;;;;0.90;98.00;;;;;;5059034;28;19940;-72
2021/03/05 07:06:36;;;;;;;;;;;0.90;98.00;;;;;;5060545;28;19904;-72
2021/03/05 07:09:03;;;;;;;;;;;0.90;98.00;;;;;;5059284;28;19919;-72
2021/03/05 07:11:34;;;;;;;;;;;0.90;98.00;;;;;;5058936;28;19908;-72
2021/03/05 07:14:00;;;;;;;;;;;0.90;98.00;;;;;;5058494;28;19909;-72
2021/03/05 07:16:25;;;;;;;;;;;0.90;98.00;;;;;;5039811;28;19908;-72
2021/03/05 07:18:51;;;;;;;;;;;0.80;98.00;;;;;;5061084;28;19963;-72
2021/03/05 07:21:18;;;;;;;;;;;0.90;98.00;;;;;;5058814;28;19911;-72
2021/03/05 07:23:47;;;;;;;;;;;0.80;98.00;;;;;;5058471;28;19963;-72
2021/03/05 07:26:13;;;;;;;;;;;0.80;98.00;;;;;;5058448;28;19915;-72
2021/03/05 07:28:45;;;;;;;;;;;0.80;98.00;;;;;;5058327;28;19915;-71
2021/03/05 07:31:12;;;;;;;;;;;0.80;98.00;;;;;;5056959;28;20470;-71
2021/03/05 07:33:39;;;;;;;;;;;0.80;98.00;;;;;;5040846;28;20205;-72
2021/03/05 07:36:08;;;;;;;;;;;0.80;98.00;;;;;;5058348;28;19915;-73
2021/03/05 07:38:36;;;;;;;;;;;0.80;98.00;;;;;;5058539;28;19912;-71
2021/03/05 07:41:02;;;;;;;;;;;0.80;98.00;;;;;;5053073;28;19912;-71
2021/03/05 07:43:28;;;;;;;;;;;0.80;98.00;;;;;;5025287;28;20598;-72
2021/03/05 07:45:54;;;;;;;;;;;0.80;98.00;;;;;;5043814;28;19948;-72
2021/03/05 07:48:20;;;;;;;;;;;0.80;98.00;;;;;;5058194;28;19997;-72
2021/03/05 07:50:46;;;;;;;;;;;0.80;98.00;;;;;;5058197;28;19912;-71
2021/03/05 07:53:11;;;;;;;;;;;0.80;98.00;;;;;;5058111;28;19915;-72
2021/03/05 07:55:38;;;;;;;;;;;0.80;98.00;;;;;;5057534;28;19916;-71
2021/03/05 07:58:03;;;;;;;;;;;0.80;98.00;;;;;;5057503;28;19912;-70
2021/03/05 08:00:41;;;;;;;;;;;0.80;98.00;;;;;;5055857;28;19935;-71
2021/03/05 08:03:07;;;;;;;;;;;0.80;98.00;;;;;;5058304;28;20290;-71
2021/03/05 08:05:34;;;;;;;;;;;0.80;98.00;;;;;;5057824;28;19951;-71
2021/03/05 08:08:10;;;;;;;;;;;0.80;98.00;;;;;;5057670;28;19909;-71
2021/03/05 08:10:43;;;;;;;;;;;0.90;98.00;;;;;;5040072;28;19951;-72
2021/03/05 08:13:28;;;;;;;;;;;0.80;98.00;;;;;;5036757;28;19905;-71
2021/03/05 08:16:00;;;;;;;;;;;0.90;98.00;;;;;;5043009;28;19917;-72
2021/03/05 08:18:25;;;;;;;;;;;0.90;98.00;;;;;;5056151;28;19909;-71
2021/03/05 08:20:52;;;;;;;;;;;0.90;98.00;;;;;;5058444;28;19919;-70
2021/03/05 08:23:18;;;;;;;;;;;1.00;98.00;;;;;;5057772;28;20197;-71
2021/03/05 08:25:53;;;;;;;;;;;1.00;98.00;;;;;;5057012;28;19921;-70
2021/03/05 08:28:38;;;;;;;;;;;1.00;98.00;;;;;;5037652;28;19915;-72
2021/03/05 08:31:24;;;;;;;;;;;1.00;98.00;;;;;;5025195;28;20284;-72
2021/03/05 08:33:49;;;;;;;;;;;1.00;98.00;;;;;;5070849;28;19929;-72
2021/03/05 08:36:35;;;;;;;;;;;1.10;98.00;;;;;;5067599;28;19911;-71
2021/03/05 08:39:20;;;;;;;;;;;1.10;98.00;;;;;;5039621;28;19909;-72
2021/03/05 08:41:45;;;;;;;;;;;1.10;98.00;;;;;;5037015;28;20057;-72
2021/03/05 08:44:11;;;;;;;;;;;1.00;98.00;;;;;;5034137;28;20305;-72
2021/03/05 08:46:38;;;;;;;;;;;1.10;98.00;;;;;;5055987;28;19905;-71
2021/03/05 08:49:04;;;;;;;;;;;1.00;98.00;;;;;;5057037;28;19905;-71
2021/03/05 08:51:34;;;;;;;;;;;1.10;98.00;;;;;;5063072;28;19919;-71
2021/03/05 08:53:59;;;;;;;;;;;1.10;98.00;;;;;;5057044;28;20205;-71
2021/03/05 08:56:27;;;;;;;;;;;1.10;98.00;;;;;;5054932;28;19919;-71
2021/03/05 08:59:00;;;;;;;;;;;1.00;98.00;;;;;;5054014;28;19935;-70
2021/03/05 09:01:26;;;;;;;;;;;1.10;98.00;;;;;;5057791;28;20313;-71
2021/03/05 09:03:51;;;;;;;;;;;1.10;98.00;;;;;;5060810;28;19919;-71
2021/03/05 09:06:17;;;;;;;;;;;1.10;98.00;;;;;;5056648;28;19991;-70
2021/03/05 09:08:42;;;;;;;;;;;1.10;98.00;;;;;;5056815;28;20315;-71
2021/03/05 09:11:09;;;;;;;;;;;1.10;98.00;;;;;;5056783;28;19909;-71
2021/03/05 09:13:35;;;;;;;;;;;1.10;98.00;;;;;;5038209;28;19908;-70
2021/03/05 09:16:04;;;;;;;;;;;1.10;98.00;;;;;;5037282;28;20195;-72
2021/03/05 09:18:31;;;;;;;;;;;1.10;98.00;;;;;;5039020;28;19909;-71
2021/03/05 09:21:03;;;;;;;;;;;1.20;98.00;;;;;;5055527;28;19944;-70
2021/03/05 09:23:40;;;;;;;;;;;1.20;98.00;;;;;;5036742;28;19909;-70
2021/03/05 09:26:07;;;;;;;;;;;1.20;98.00;;;;;;5021210;28;19917;-71
2021/03/05 09:28:42;;;;;;;;;;;1.20;98.00;;;;;;5040673;28;19911;-71
2021/03/05 09:31:08;;;;;;;;;;;1.20;98.00;;;;;;5037447;28;19908;-71
2021/03/05 09:33:38;;;;;;;;;;;1.30;98.00;;;;;;5056341;28;19905;-70
2021/03/05 09:36:04;;;;;;;;;;;1.30;98.00;;;;;;5055664;28;20209;-71
2021/03/05 09:38:29;;;;;;;;;;;1.20;98.00;;;;;;5056305;28;19912;-69
2021/03/05 09:41:08;;;;;;;;;;;1.20;98.00;;;;;;5056250;28;19904;-70
2021/03/05 09:43:33;;;;;;;;;;;1.10;98.00;;;;;;5065141;28;19908;-69
2021/03/05 09:45:59;;;;;;;;;;;1.10;98.00;;;;;;5053155;28;20324;-69
2021/03/05 09:48:31;;;;;;;;;;;1.20;98.00;;;;;;5056030;28;19916;-72
2021/03/05 09:50:58;;;;;;;;;;;1.30;98.00;;;;;;5037538;28;20351;-71
2021/03/05 09:53:25;;;;;;;;;;;1.30;98.00;;;;;;5055204;28;19916;-71
2021/03/05 09:55:52;;;;;;;;;;;1.30;98.00;;;;;;5055433;28;20351;-71
2021/03/05 09:58:18;;;;;;;;;;;1.40;98.00;;;;;;5038229;28;19917;-71
2021/03/05 10:00:44;;;;;;;;;;;1.30;98.00;;;;;;5054720;28;19924;-72
2021/03/05 10:03:11;;;;;;;;;;;1.40;98.00;;;;;;5055970;28;19908;-70
2021/03/05 10:05:37;;;;;;;;;;;1.50;98.00;;;;;;5055867;28;19905;-71
2021/03/05 10:08:23;;;;;;;;;;;1.60;98.00;;;;;;5055684;28;19924;-71
2021/03/05 10:11:05;;;;;;;;;;;1.60;98.00;;;;;;5044580;28;20294;-71
2021/03/05 10:13:51;;;;;;;;;;;1.70;98.00;;;;;;5037902;28;19912;-70
2021/03/05 10:16:16;;;;;;;;;;;1.80;98.00;;;;;;5043099;28;19912;-71
2021/03/05 10:18:43;;;;;;;;;;;1.80;98.00;;;;;;5075842;28;19909;-71
2021/03/05 10:21:12;;;;;;;;;;;1.70;98.00;;;;;;5040987;28;20306;-72
2021/03/05 10:23:38;;;;;;;;;;;1.70;98.00;;;;;;5055745;28;20209;-70
2021/03/05 10:26:11;;;;;;;;;;;1.70;98.00;;;;;;5055462;28;19913;-71
2021/03/05 10:28:39;;;;;;;;;;;1.80;98.00;;;;;;5055653;28;19908;-71
2021/03/05 10:31:05;;;;;;;;;;;1.90;98.00;;;;;;5054266;28;20048;-71
2021/03/05 10:33:41;;;;;;;;;;;2.00;98.00;;;;;;5059281;28;19995;-72
2021/03/05 10:36:07;;;;;;;;;;;2.10;98.00;;;;;;5059547;28;20217;-72
2021/03/05 10:38:33;;;;;;;;;;;2.20;98.00;;;;;;5059411;28;19909;-72
2021/03/05 10:40:58;;;;;;;;;;;2.10;98.00;;;;;;5059160;28;20007;-71
2021/03/05 10:43:24;;;;;;;;;;;2.00;98.00;;;;;;5059527;28;19950;-72
2021/03/05 10:45:50;;;;;;;;;;;2.00;98.00;;;;;;5057477;28;19916;-72
2021/03/05 10:48:15;;;;;;;;;;;1.90;98.00;;;;;;5058978;28;19932;-71
2021/03/05 10:50:41;;;;;;;;;;;1.90;98.00;;;;;;5059036;28;19916;-71
2021/03/05 10:53:06;;;;;;;;;;;2.00;98.00;;;;;;5058986;28;19915;-72
2021/03/05 10:55:32;;;;;;;;;;;2.10;98.00;;;;;;5059138;28;20305;-72
2021/03/05 10:57:58;;;;;;;;;;;2.40;98.00;;;;;;5058940;28;19916;-72
2021/03/05 11:00:24;;;;;;;;;;;2.40;98.00;;;;;;5058175;28;19904;-70
2021/03/05 11:02:50;;;;;;;;;;;2.40;98.00;;;;;;5059062;28;20003;-71
2021/03/05 11:05:15;;;;;;;;;;;2.40;98.00;;;;;;5059234;28;20328;-72
2021/03/05 11:07:41;;;;;;;;;;;2.40;98.00;;;;;;5058301;28;20011;-71
2021/03/05 11:10:06;;;;;;;;;;;2.40;98.00;;;;;;5058890;28;20431;-72
2021/03/05 11:12:32;;;;;;;;;;;2.30;98.00;;;;;;5058771;28;19916;-72
2021/03/05 11:14:57;;;;;;;;;;;2.30;98.00;;;;;;5058866;28;20284;-72
2021/03/05 11:17:23;;;;;;;;;;;2.30;98.00;;;;;;5071195;28;20308;-72
2021/03/05 11:19:49;;;;;;;;;;;2.40;98.00;;;;;;5058987;28;19912;-72
2021/03/05 11:22:14;;;;;;;;;;;2.40;98.00;;;;;;5058532;28;20007;-71
2021/03/05 11:24:40;;;;;;;;;;;2.50;98.00;;;;;;5055989;28;19963;-71
2021/03/05 11:27:06;;;;;;;;;;;2.70;98.00;;;;;;5058182;28;19912;-72
2021/03/05 11:29:32;;;;;;;;;;;2.80;98.00;;;;;;5058187;28;19908;-72
2021/03/05 11:31:57;;;;;;;;;;;3.00;98.00;;;;;;5057502;28;19951;-72
2021/03/05 11:34:23;;;;;;;;;;;3.00;98.00;;;;;;5058316;28;19908;-72
2021/03/05 11:36:50;;;;;;;;;;;3.30;98.00;;;;;;5058294;28;19951;-71
2021/03/05 11:39:15;;;;;;;;;;;3.40;98.00;;;;;;5057938;28;19909;-72
2021/03/05 11:41:41;;;;;;;;;;;3.60;98.00;;;;;;5040380;28;19913;-72
2021/03/05 11:44:06;;;;;;;;;;;3.40;98.00;;;;;;5058084;28;19916;-72
2021/03/05 11:46:33;;;;;;;;;;;3.40;98.00;;;;;;5063031;28;19999;-72
2021/03/05 11:48:58;;;;;;;;;;;3.40;98.00;;;;;;5040363;28;19908;-72
2021/03/05 11:51:24;;;;;;;;;;;3.40;98.00;;;;;;5057789;28;19919;-72
2021/03/05 11:53:50;;;;;;;;;;;3.40;98.00;;;;;;5039354;28;19912;-72
2021/03/05 11:56:16;;;;;;;;;;;3.20;98.00;;;;;;5062503;28;19967;-71
2021/03/05 11:58:41;;;;;;;;;;;3.10;98.00;;;;;;5057528;28;20220;-71
2021/03/05 12:01:07;;;;;;;;;;;2.90;98.00;;;;;;5055669;28;19909;-71
2021/03/05 12:03:33;;;;;;;;;;;2.80;98.00;;;;;;5040135;28;19904;-72
2021/03/05 12:05:58;;;;;;;;;;;2.80;98.00;;;;;;5060031;28;20239;-72
2021/03/05 12:08:24;;;;;;;;;;;2.80;98.00;;;;;;5057554;28;19916;-71
2021/03/05 12:10:50;;;;;;;;;;;2.90;98.00;;;;;;5039402;28;19916;-72
2021/03/05 12:13:18;;;;;;;;;;;2.90;98.00;;;;;;5056964;28;19987;-72
2021/03/05 12:15:44;;;;;;;;;;;3.00;98.00;;;;;;5054619;28;19909;-71
2021/03/05 12:18:10;;;;;;;;;;;2.90;98.00;;;;;;5055790;28;20255;-71
2021/03/05 12:20:36;;;;;;;;;;;2.90;98.00;;;;;;5057203;28;19916;-72
2021/03/05 12:23:02;;;;;;;;;;;2.80;98.00;;;;;;5055775;28;19952;-71
2021/03/05 12:25:28;;;;;;;;;;;2.70;98.00;;;;;;5055712;28;19959;-71
2021/03/05 12:27:53;;;;;;;;;;;2.50;98.00;;;;;;5051716;28;19954;-70
2021/03/05 12:30:19;;;;;;;;;;;2.50;98.00;;;;;;5054154;28;19916;-71
2021/03/05 12:32:45;;;;;;;;;;;2.40;98.00;;;;;;5035830;28;19909;-70
2021/03/05 12:35:11;;;;;;;;;;;2.60;98.00;;;;;;5051845;28;19962;-68
2021/03/05 12:37:37;;;;;;;;;;;2.80;98.00;;;;;;5053146;28;19930;-69
2021/03/05 12:40:03;;;;;;;;;;;2.70;98.00;;;;;;5054184;28;19909;-68
2021/03/05 12:42:28;;;;;;;;;;;2.80;98.00;;;;;;5055494;28;20241;-69
2021/03/05 12:44:54;;;;;;;;;;;3.00;98.00;;;;;;5056383;28;19974;-71
2021/03/05 12:47:19;;;;;;;;;;;3.10;98.00;;;;;;5055769;28;19904;-71
2021/03/05 12:49:45;;;;;;;;;;;3.30;98.00;;;;;;5068076;28;20333;-71
2021/03/05 12:52:10;;;;;;;;;;;3.30;98.00;;;;;;5056222;28;19963;-71
2021/03/05 12:54:36;;;;;;;;;;;3.50;98.00;;;;;;5051515;28;19919;-71
2021/03/05 12:57:02;;;;;;;;;;;3.80;98.00;;;;;;5054822;28;19970;-70
2021/03/05 12:59:27;;;;;;;;;;;4.00;98.00;;;;;;5056864;28;19967;-70
2021/03/05 13:01:55;;;;;;;;;;;3.90;97.90;;;;;;5054968;28;19909;-70
2021/03/05 13:04:20;;;;;;;;;;;3.70;97.60;;;;;;5056782;28;19909;-71
2021/03/05 13:06:48;;;;;;;;;;;3.30;97.80;;;;;;5057013;28;19908;-70
2021/03/05 13:09:13;;;;;;;;;;;3.40;98.00;;;;;;5056888;28;20246;-71
2021/03/05 13:11:41;;;;;;;;;;;3.60;98.00;;;;;;5056711;28;20007;-71
2021/03/05 13:14:07;;;;;;;;;;;3.90;98.00;;;;;;5056771;28;19947;-70
2021/03/05 13:16:41;;;;;;;;;;;3.90;97.30;;;;;;5112485;27;20277;-69
2021/03/05 13:19:07;;;;;;;;;;;4.10;97.30;;;;;;5113767;28;20036;-69
2021/03/05 13:21:32;;;;;;;;;;;4.10;96.90;;;;;;5113138;28;19912;-70
2021/03/05 13:23:58;;;;;;;;;;;4.20;97.50;;;;;;5113614;28;19908;-70
2021/03/05 13:26:23;;;;;;;;;;;4.30;97.20;;;;;;5113504;28;19912;-69
2021/03/05 13:28:51;;;;;;;;;;;4.50;97.50;;;;;;5113162;28;19935;-69
2021/03/05 13:31:16;;;;;;;;;;;4.70;96.90;;;;;;5112437;28;20007;-69
2021/03/05 13:33:42;;;;;;;;;;;4.60;96.20;;;;;;5113444;28;20281;-70
2021/03/05 13:36:08;;;;;;;;;;;4.30;96.10;;;;;;5113374;28;19998;-69
2021/03/05 13:38:33;;;;;;;;;;;4.10;96.80;;;;;;5113541;28;20296;-70
2021/03/05 13:41:00;;;;;;;;;;;3.90;97.10;;;;;;5113431;28;19908;-70
2021/03/05 13:43:25;;;;;;;;;;;3.70;97.70;;;;;;5113440;28;19908;-69
2021/03/05 13:45:51;;;;;;;;;;;3.60;98.00;;;;;;5111905;28;20052;-70
2021/03/05 13:48:17;;;;;;;;;;;3.60;98.00;;;;;;5113204;28;19908;-69
2021/03/05 13:50:42;;;;;;;;;;;3.50;97.80;;;;;;5112753;28;20278;-71
2021/03/05 13:53:08;;;;;;;;;;;3.40;97.60;;;;;;5113087;28;19912;-70
2021/03/05 13:55:33;;;;;;;;;;;3.40;98.00;;;;;;5112905;28;19916;-69
2021/03/05 13:57:59;;;;;;;;;;;3.40;98.00;;;;;;5112721;28;19919;-70
2021/03/05 14:00:25;;;;;;;;;;;3.40;98.00;;;;;;5109753;28;19918;-70
2021/03/05 14:02:50;;;;;;;;;;;3.70;98.00;;;;;;5112456;28;19918;-70
2021/03/05 14:05:16;;;;;;;;;;;3.70;97.60;;;;;;5112723;28;19912;-71
2021/03/05 14:07:41;;;;;;;;;;;3.50;97.20;;;;;;5112952;28;19965;-70
2021/03/05 14:10:10;;;;;;;;;;;3.70;97.80;;;;;;5112794;28;20316;-70
2021/03/05 14:12:35;;;;;;;;;;;3.90;98.00;;;;;;5111683;28;20394;-69
2021/03/05 14:15:01;;;;;;;;;;;3.90;96.70;;;;;;5112292;28;19924;-70
2021/03/05 14:17:27;;;;;;;;;;;3.80;96.50;;;;;;5110147;28;19942;-70
2021/03/05 14:19:52;;;;;;;;;;;3.80;97.50;;;;;;5110947;28;19916;-70
2021/03/05 14:22:18;;;;;;;;;;;3.60;96.90;;;;;;5112033;28;20393;-70
2021/03/05 14:24:43;;;;;;;;;;;3.50;97.50;;;;;;5111514;28;19943;-71
2021/03/05 14:27:09;;;;;;;;;;;3.50;97.40;;;;;;5089712;28;19912;-70
2021/03/05 14:29:34;;;;;;;;;;;3.40;97.90;;;;;;5078545;28;19908;-70
2021/03/05 14:32:00;;;;;;;;;;;3.40;98.00;;;;;;5089831;28;20338;-70